createdAt,value
2023-03-06T00:03:52.561Z,208.37768
2023-03-06T00:08:54.036Z,205.01695
2023-03-06T00:13:55.531Z,198.54545
2023-03-06T00:18:57.028Z,197.49794
2023-03-06T00:23:58.589Z,195.42857
2023-03-06T00:29:00.140Z,194.4065
2023-03-06T00:34:01.709Z,190.4
2023-03-06T00:39:03.201Z,188.44444
2023-03-06T00:44:04.775Z,179.1145
2023-03-06T00:49:06.228Z,182.75969
2023-03-06T00:54:07.702Z,185.56863
2023-03-06T00:59:09.229Z,189.41833
2023-03-06T01:04:10.701Z,191.38956
2023-03-06T01:09:12.213Z,194.4065
2023-03-06T01:14:13.757Z,196.45902
2023-03-06T01:19:15.226Z,196.45902
2023-03-06T01:24:16.707Z,197.49794
2023-03-06T01:29:18.161Z,199.60166
2023-03-06T01:34:19.639Z,200.66667
2023-03-06T01:39:21.127Z,203.91561
2023-03-06T01:44:22.594Z,205.01695
2023-03-06T01:49:24.053Z,205.01695
2023-03-06T01:54:25.552Z,208.37768
2023-03-06T01:59:27.050Z,208.37768
2023-03-06T02:04:28.597Z,210.66667
2023-03-06T02:09:30.173Z,217.77778
2023-03-06T02:14:31.699Z,226.56881
2023-03-06T02:19:33.234Z,227.87097
2023-03-06T02:24:34.739Z,229.18519
2023-03-06T02:29:36.240Z,227.87097
2023-03-06T02:34:37.685Z,227.87097
2023-03-06T02:39:39.361Z,221.47748
2023-03-06T02:44:40.894Z,215.36564
2023-03-06T02:49:42.395Z,212.99563
2023-03-06T02:54:43.921Z,214.17544
2023-03-06T02:59:45.476Z,211.82609
2023-03-06T03:04:46.993Z,215.36564
2023-03-06T03:09:48.449Z,214.17544
2023-03-06T03:14:50.071Z,212.99563
2023-03-06T03:19:51.613Z,210.66667
2023-03-06T03:24:53.220Z,207.24786
2023-03-06T03:29:54.812Z,208.37768
2023-03-06T03:34:56.323Z,210.66667
2023-03-06T03:39:57.833Z,207.24786
2023-03-06T03:44:59.440Z,206.12766
2023-03-06T03:50:00.957Z,206.12766
2023-03-06T03:55:02.457Z,205.01695
2023-03-06T04:00:03.980Z,205.01695
2023-03-06T04:05:05.580Z,202.82353
2023-03-06T04:10:07.094Z,202.82353
2023-03-06T04:15:08.579Z,199.60166
2023-03-06T04:20:10.026Z,200.66667
2023-03-06T04:25:11.540Z,197.49794
2023-03-06T04:30:13.071Z,195.42857
2023-03-06T04:35:14.531Z,193.39271
2023-03-06T04:40:16.016Z,194.4065
2023-03-06T04:45:17.588Z,186.51969
2023-03-06T04:50:19.094Z,177.33333
2023-03-06T04:55:20.599Z,162.43972
2023-03-06T05:00:22.109Z,157.88889
2023-03-06T05:05:23.594Z,157.14879
2023-03-06T05:10:25.305Z,159.38462
2023-03-06T05:15:26.867Z,160.90141
2023-03-06T05:20:28.332Z,162.43972
2023-03-06T05:25:29.803Z,168
2023-03-06T05:30:31.306Z,179.1145
2023-03-06T05:35:32.904Z,180.01533
2023-03-06T05:40:34.440Z,191.38956
2023-03-06T05:45:36.022Z,195.42857
2023-03-06T05:50:37.594Z,196.45902
2023-03-06T05:55:39.130Z,207.24786
2023-03-06T06:00:40.593Z,201.74059
2023-03-06T06:05:42.040Z,208.37768
2023-03-06T06:10:43.515Z,196.45902
2023-03-06T06:15:45.676Z,209.51724
2023-03-06T06:20:47.192Z,216.56637
2023-03-06T06:25:48.632Z,211.82609
2023-03-06T06:30:50.335Z,209.51724
2023-03-06T06:35:51.924Z,222.73303
2023-03-06T06:41:19.336Z,268.21053
2023-03-06T06:47:02.694Z,306.35294
2023-03-06T06:52:22.161Z,317.33333
2023-03-06T06:57:23.585Z,414.22901
2023-03-06T07:02:25.058Z,494
2023-03-06T07:07:26.652Z,494
2023-03-06T07:12:28.090Z,592.42105
2023-03-06T07:17:29.620Z,542.05825
2023-03-06T07:22:41.428Z,566.22222
2023-03-06T07:27:53.669Z,585.66667
2023-03-06T07:32:55.574Z,723.74684
2023-03-06T07:37:57.057Z,668.70588
2023-03-06T07:43:12.997Z,953.83607
2023-03-06T07:48:18.712Z,970.66667
2023-03-06T07:53:20.279Z,1128.61538
2023-03-06T07:58:21.881Z,1201.14286
2023-03-06T08:03:23.375Z,1931.09677
2023-03-06T08:08:24.864Z,2068.13793
2023-03-06T08:13:26.388Z,1565.05263
2023-03-06T08:18:27.961Z,2225.48148
2023-03-06T08:23:29.496Z,2225.48148
2023-03-06T08:28:31.102Z,1997.33333
2023-03-06T08:33:32.695Z,3794
2023-03-06T08:38:34.154Z,2622.26087
2023-03-06T08:43:35.624Z,6104
2023-03-06T08:48:37.076Z,15344
2023-03-06T08:53:43.894Z,12264
2023-03-06T08:58:45.719Z,20477.33333
2023-03-06T09:03:47.273Z,12264
2023-03-06T09:08:48.776Z,15344
2023-03-06T09:13:50.229Z,20477.33333
2023-03-06T09:18:51.841Z,15344
2023-03-06T09:23:53.285Z,15344
2023-03-06T09:28:54.802Z,10210.66667
2023-03-06T09:33:56.398Z,20477.33333
2023-03-06T09:38:57.865Z,12264
2023-03-06T09:43:59.326Z,15344
2023-03-06T09:49:00.957Z,20477.33333
2023-03-06T09:54:02.466Z,15344
2023-03-06T09:59:03.967Z,20477.33333
2023-03-06T10:04:05.509Z,15344
2023-03-06T10:09:07.008Z,15344
2023-03-06T10:14:08.589Z,30744
2023-03-06T10:19:10.143Z,12264
2023-03-06T10:24:11.623Z,20477.33333
2023-03-06T10:29:13.223Z,30744
2023-03-06T10:34:14.752Z,20477.33333
2023-03-06T10:39:16.215Z,30744
2023-03-06T10:44:17.820Z,20477.33333
2023-03-06T10:49:19.447Z,30744
2023-03-06T10:54:20.931Z,30744
2023-03-06T10:59:22.464Z,20477.33333
2023-03-06T11:04:24.101Z,30744
2023-03-06T11:09:25.610Z,30744
2023-03-06T11:14:27.738Z,30744
2023-03-06T11:19:29.248Z,20477.33333
2023-03-06T11:24:30.741Z,30744
2023-03-06T11:29:34.903Z,30744
2023-03-06T11:34:37.313Z,30744
2023-03-06T11:39:38.860Z,30744
2023-03-06T11:44:40.312Z,61544
2023-03-06T11:49:41.837Z,61544
2023-03-06T11:54:43.355Z,61544
2023-03-06T11:59:44.796Z,30744
2023-03-06T12:04:46.341Z,61544
2023-03-06T12:09:47.837Z,30744
2023-03-06T12:14:49.282Z,61544
2023-03-06T12:19:50.855Z,61544
2023-03-06T12:24:52.430Z,61544
2023-03-06T12:29:53.958Z,61544
2023-03-06T12:34:55.500Z,61544
2023-03-06T12:39:57.317Z,61544
2023-03-06T12:44:58.974Z,61544
2023-03-06T12:50:01.192Z,0
2023-03-06T12:55:02.719Z,61544
2023-03-06T13:00:04.254Z,30744
2023-03-06T13:05:05.763Z,61544
2023-03-06T13:10:07.280Z,0
2023-03-06T13:15:08.790Z,61544
2023-03-06T13:20:10.314Z,61544
2023-03-06T13:25:11.799Z,61544
2023-03-06T13:30:13.250Z,61544
2023-03-06T13:35:14.818Z,0
2023-03-06T13:40:16.410Z,61544
2023-03-06T13:45:17.945Z,61544
2023-03-06T13:50:20.059Z,61544
2023-03-06T13:55:21.548Z,30744
2023-03-06T14:00:23.084Z,61544
2023-03-06T14:05:24.683Z,61544
2023-03-06T14:10:26.412Z,61544
2023-03-06T14:15:28.194Z,20477.33333
2023-03-06T14:25:41.640Z,15344
2023-03-06T14:30:43.501Z,5077.33333
2023-03-06T14:35:45.268Z,4050.66667
2023-03-06T14:40:46.981Z,6788.44444
2023-03-06T14:45:48.707Z,7644
2023-03-06T14:50:50.243Z,3366.22222
2023-03-06T14:55:51.800Z,3567.52941
2023-03-06T15:00:53.307Z,5077.33333
2023-03-06T15:05:54.890Z,4682.46154
2023-03-06T15:10:56.387Z,6788.44444
2023-03-06T15:15:57.861Z,5544
2023-03-06T15:20:59.319Z,4344
2023-03-06T15:26:01.226Z,5544
2023-03-06T15:31:02.721Z,4344
2023-03-06T15:36:04.270Z,2622.26087
2023-03-06T15:41:05.772Z,2144
2023-03-06T15:46:07.437Z,2510.66667
2023-03-06T15:51:09.032Z,1704
2023-03-06T15:56:10.648Z,1254.6383
2023-03-06T16:01:12.145Z,1565.05263
2023-03-06T16:06:13.667Z,2313.23077
2023-03-06T16:11:15.221Z,1755.76471
2023-03-06T16:16:16.742Z,1006.06897
2023-03-06T16:21:18.228Z,906.5
2023-03-06T16:26:19.736Z,1084.74074
2023-03-06T16:31:21.213Z,1254.6383
2023-03-06T16:36:22.695Z,1344
2023-03-06T16:41:24.260Z,1084.74074
2023-03-06T16:46:25.948Z,1006.06897
2023-03-06T16:51:27.503Z,849.88235
2023-03-06T16:56:29.066Z,744
2023-03-06T17:01:30.671Z,906.5
2023-03-06T17:06:32.218Z,970.66667
2023-03-06T17:11:33.711Z,799.55556
2023-03-06T17:16:35.211Z,824
2023-03-06T17:21:36.739Z,723.74684
2023-03-06T17:26:38.350Z,628.44444
2023-03-06T17:31:39.888Z,704.49383
2023-03-06T17:36:41.383Z,536.30769
2023-03-06T17:41:44.179Z,572.57143
2023-03-06T17:46:47.655Z,620.92308
2023-03-06T17:51:49.247Z,606.36559
2023-03-06T17:56:50.732Z,613.56522
2023-03-06T18:01:52.257Z,579.05155
2023-03-06T18:06:53.778Z,592.42105
2023-03-06T18:11:55.344Z,553.90099
2023-03-06T18:16:56.795Z,530.66667
2023-03-06T18:21:58.288Z,498.95495
2023-03-06T18:27:00.434Z,484.35088
2023-03-06T18:32:02.132Z,484.35088
2023-03-06T18:37:03.801Z,466.0339
2023-03-06T18:42:05.285Z,470.49573
2023-03-06T18:47:06.811Z,444.81301
2023-03-06T18:52:08.259Z,475.03448
2023-03-06T18:57:09.756Z,453.09091
2023-03-06T19:02:11.231Z,448.91803
2023-03-06T19:07:12.683Z,436.8
2023-03-06T19:12:14.126Z,410.66667
2023-03-06T19:17:15.591Z,407.15789
2023-03-06T19:22:17.108Z,407.15789
2023-03-06T19:27:18.717Z,403.70149
2023-03-06T19:32:20.392Z,387.16547
2023-03-06T19:37:22.060Z,384
2023-03-06T19:42:23.593Z,377.80282
2023-03-06T19:47:25.117Z,380.87943
2023-03-06T19:52:26.654Z,380.87943
2023-03-06T19:57:28.235Z,363.04762
2023-03-06T20:02:29.711Z,357.42282
2023-03-06T20:07:31.269Z,363.04762
2023-03-06T20:12:32.789Z,351.94702
2023-03-06T20:17:34.287Z,351.94702
2023-03-06T20:22:36.086Z,360.21622
2023-03-06T20:27:37.745Z,351.94702
2023-03-06T20:32:39.253Z,363.04762
2023-03-06T20:37:40.869Z,357.42282
2023-03-06T20:42:42.356Z,351.94702
2023-03-06T20:47:43.863Z,338.87179
2023-03-06T20:52:45.383Z,344
2023-03-06T20:57:46.870Z,351.94702
2023-03-06T21:02:48.527Z,344
2023-03-06T21:07:50.035Z,357.42282
2023-03-06T21:18:02.082Z,351.94702
2023-03-06T21:23:03.582Z,338.87179
2023-03-06T21:28:05.626Z,344
2023-03-06T21:33:07.292Z,351.94702
2023-03-06T21:38:08.775Z,338.87179
2023-03-06T21:43:10.341Z,333.87342
2023-03-06T21:48:11.846Z,338.87179
2023-03-06T21:53:13.425Z,324.24691
2023-03-06T21:58:14.921Z,321.91411
2023-03-06T22:03:16.436Z,324.24691
2023-03-06T22:08:17.945Z,326.6087
2023-03-06T22:13:19.512Z,317.33333
2023-03-06T22:18:21.016Z,308.49704
2023-03-06T22:23:22.554Z,300.06936
2023-03-06T22:28:24.003Z,286.22222
2023-03-06T22:33:25.574Z,284.33149
2023-03-06T22:38:27.018Z,282.46154
2023-03-06T22:43:28.582Z,280.61202
2023-03-06T22:48:30.112Z,278.78261
2023-03-06T22:53:31.676Z,276.97297
2023-03-06T22:58:33.159Z,282.46154
2023-03-06T23:03:34.672Z,282.46154
2023-03-06T23:08:36.132Z,282.46154
2023-03-06T23:13:37.620Z,288.13408
2023-03-06T23:18:39.104Z,292.0226
2023-03-06T23:23:40.589Z,319.60976
2023-03-06T23:28:42.043Z,365.91781
2023-03-06T23:33:43.527Z,421.51938
2023-03-06T23:38:45.037Z,440.77419
2023-03-06T23:43:46.515Z,494
2023-03-06T23:48:48.061Z,514.37037
2023-03-06T23:53:49.543Z,536.30769
2023-03-06T23:58:51.011Z,542.05825
